sensor_id;sensor_type;location;lat;lon;timestamp;temperature;humidity
11497;DHT22;5805;51.542;7.230;2023-07-30T00:02:06;19.40;99.90
11497;DHT22;5805;51.542;7.230;2023-07-30T00:04:31;19.30;99.90
11497;DHT22;5805;51.542;7.230;2023-07-30T00:06:58;19.30;99.90
11497;DHT22;5805;51.542;7.230;2023-07-30T00:09:24;19.30;99.90
11497;DHT22;5805;51.542;7.230;2023-07-30T00:11:50;19.30;99.90
11497;DHT22;5805;51.542;7.230;2023-07-30T00:14:15;19.30;99.90
11497;DHT22;5805;51.542;7.230;2023-07-30T00:16:41;19.30;99.90
11497;DHT22;5805;51.542;7.230;2023-07-30T00:19:07;19.30;99.90
11497;DHT22;5805;51.542;7.230;2023-07-30T00:21:32;19.20;99.90
11497;DHT22;5805;51.542;7.230;2023-07-30T00:23:59;19.20;99.90
11497;DHT22;5805;51.542;7.230;2023-07-30T00:26:25;19.20;99.90
11497;DHT22;5805;51.542;7.230;2023-07-30T00:28:51;19.10;99.90
11497;DHT22;5805;51.542;7.230;2023-07-30T00:31:16;19.10;99.90
11497;DHT22;5805;51.542;7.230;2023-07-30T00:33:42;19.10;99.90
11497;DHT22;5805;51.542;7.230;2023-07-30T00:36:08;19.00;99.90
11497;DHT22;5805;51.542;7.230;2023-07-30T00:38:33;19.00;99.90
11497;DHT22;5805;51.542;7.230;2023-07-30T00:41:00;19.00;99.90
11497;DHT22;5805;51.542;7.230;2023-07-30T00:43:26;19.00;99.90
11497;DHT22;5805;51.542;7.230;2023-07-30T00:45:52;19.00;99.90
11497;DHT22;5805;51.542;7.230;2023-07-30T00:48:17;19.00;99.90
11497;DHT22;5805;51.542;7.230;2023-07-30T00:50:43;19.00;99.90
11497;DHT22;5805;51.542;7.230;2023-07-30T00:53:11;18.90;99.90
11497;DHT22;5805;51.542;7.230;2023-07-30T00:55:39;18.80;99.90
11497;DHT22;5805;51.542;7.230;2023-07-30T00:58:06;18.80;99.90
11497;DHT22;5805;51.542;7.230;2023-07-30T01:00:32;18.80;99.90
11497;DHT22;5805;51.542;7.230;2023-07-30T01:02:58;18.70;99.90
11497;DHT22;5805;51.542;7.230;2023-07-30T01:05:24;18.70;99.90
11497;DHT22;5805;51.542;7.230;2023-07-30T01:07:51;18.70;99.90
11497;DHT22;5805;51.542;7.230;2023-07-30T01:10:17;18.70;99.90
11497;DHT22;5805;51.542;7.230;2023-07-30T01:12:43;18.60;99.90
11497;DHT22;5805;51.542;7.230;2023-07-30T01:15:12;18.60;99.90
11497;DHT22;5805;51.542;7.230;2023-07-30T01:17:37;18.50;99.90
11497;DHT22;5805;51.542;7.230;2023-07-30T01:20:04;18.50;99.90
11497;DHT22;5805;51.542;7.230;2023-07-30T01:22:31;18.50;99.90
11497;DHT22;5805;51.542;7.230;2023-07-30T01:24:57;18.50;99.90
11497;DHT22;5805;51.542;7.230;2023-07-30T01:27:25;18.50;99.90
11497;DHT22;5805;51.542;7.230;2023-07-30T01:29:52;18.50;99.90
11497;DHT22;5805;51.542;7.230;2023-07-30T01:32:21;18.50;99.90
11497;DHT22;5805;51.542;7.230;2023-07-30T01:34:50;18.50;99.90
11497;DHT22;5805;51.542;7.230;2023-07-30T01:37:17;18.40;99.90
11497;DHT22;5805;51.542;7.230;2023-07-30T01:39:45;18.40;99.90
11497;DHT22;5805;51.542;7.230;2023-07-30T01:42:13;18.40;99.90
11497;DHT22;5805;51.542;7.230;2023-07-30T01:44:38;18.30;99.90
11497;DHT22;5805;51.542;7.230;2023-07-30T01:47:04;18.30;99.90
11497;DHT22;5805;51.542;7.230;2023-07-30T01:49:30;18.20;99.90
11497;DHT22;5805;51.542;7.230;2023-07-30T01:51:56;18.20;99.90
11497;DHT22;5805;51.542;7.230;2023-07-30T01:54:21;18.20;99.90
11497;DHT22;5805;51.542;7.230;2023-07-30T01:56:49;18.10;99.90
11497;DHT22;5805;51.542;7.230;2023-07-30T01:59:15;18.10;99.90
11497;DHT22;5805;51.542;7.230;2023-07-30T02:04:06;18.10;99.90
11497;DHT22;5805;51.542;7.230;2023-07-30T02:06:32;18.10;99.90
11497;DHT22;5805;51.542;7.230;2023-07-30T02:08:57;18.00;99.90
11497;DHT22;5805;51.542;7.230;2023-07-30T02:11:23;18.00;99.90
11497;DHT22;5805;51.542;7.230;2023-07-30T02:13:50;18.00;99.90
11497;DHT22;5805;51.542;7.230;2023-07-30T02:16:16;18.00;99.90
11497;DHT22;5805;51.542;7.230;2023-07-30T02:18:41;18.00;99.90
11497;DHT22;5805;51.542;7.230;2023-07-30T02:21:07;18.00;99.90
11497;DHT22;5805;51.542;7.230;2023-07-30T02:23:33;17.90;99.90
11497;DHT22;5805;51.542;7.230;2023-07-30T02:25:58;17.90;99.90
11497;DHT22;5805;51.542;7.230;2023-07-30T02:28:24;17.90;99.90
11497;DHT22;5805;51.542;7.230;2023-07-30T02:30:51;17.90;99.90
11497;DHT22;5805;51.542;7.230;2023-07-30T02:33:16;17.90;99.90
11497;DHT22;5805;51.542;7.230;2023-07-30T02:35:43;17.90;99.90
11497;DHT22;5805;51.542;7.230;2023-07-30T02:38:08;17.90;99.90
11497;DHT22;5805;51.542;7.230;2023-07-30T02:40:34;17.80;99.90
11497;DHT22;5805;51.542;7.230;2023-07-30T02:43:00;17.80;99.90
11497;DHT22;5805;51.542;7.230;2023-07-30T02:45:26;17.80;99.90
11497;DHT22;5805;51.542;7.230;2023-07-30T02:47:53;17.80;99.90
11497;DHT22;5805;51.542;7.230;2023-07-30T02:50:19;17.80;99.90
11497;DHT22;5805;51.542;7.230;2023-07-30T02:52:44;17.70;99.90
11497;DHT22;5805;51.542;7.230;2023-07-30T02:55:10;17.70;99.90
11497;DHT22;5805;51.542;7.230;2023-07-30T02:57:36;17.70;99.90
11497;DHT22;5805;51.542;7.230;2023-07-30T03:00:03;17.70;99.90
11497;DHT22;5805;51.542;7.230;2023-07-30T03:02:28;17.70;99.90
11497;DHT22;5805;51.542;7.230;2023-07-30T03:04:55;17.70;99.90
11497;DHT22;5805;51.542;7.230;2023-07-30T03:07:21;17.70;99.90
11497;DHT22;5805;51.542;7.230;2023-07-30T03:09:47;17.60;99.90
11497;DHT22;5805;51.542;7.230;2023-07-30T03:12:13;17.60;99.90
11497;DHT22;5805;51.542;7.230;2023-07-30T03:14:38;17.60;99.90
11497;DHT22;5805;51.542;7.230;2023-07-30T03:17:04;17.60;99.90
11497;DHT22;5805;51.542;7.230;2023-07-30T03:19:30;17.60;99.90
11497;DHT22;5805;51.542;7.230;2023-07-30T03:21:57;17.60;99.90
11497;DHT22;5805;51.542;7.230;2023-07-30T03:24:23;17.50;99.90
11497;DHT22;5805;51.542;7.230;2023-07-30T03:26:49;17.50;99.90
11497;DHT22;5805;51.542;7.230;2023-07-30T03:29:14;17.50;99.90
11497;DHT22;5805;51.542;7.230;2023-07-30T03:31:40;17.50;99.90
11497;DHT22;5805;51.542;7.230;2023-07-30T03:34:06;17.50;99.90
11497;DHT22;5805;51.542;7.230;2023-07-30T03:36:31;17.50;99.90
11497;DHT22;5805;51.542;7.230;2023-07-30T03:38:58;17.40;99.90
11497;DHT22;5805;51.542;7.230;2023-07-30T03:41:24;17.40;99.90
11497;DHT22;5805;51.542;7.230;2023-07-30T03:43:50;17.40;99.90
11497;DHT22;5805;51.542;7.230;2023-07-30T03:46:16;17.40;99.90
11497;DHT22;5805;51.542;7.230;2023-07-30T03:48:41;17.40;99.90
11497;DHT22;5805;51.542;7.230;2023-07-30T03:51:07;17.40;99.90
11497;DHT22;5805;51.542;7.230;2023-07-30T03:53:33;17.40;99.90
11497;DHT22;5805;51.542;7.230;2023-07-30T03:56:00;17.40;99.90
11497;DHT22;5805;51.542;7.230;2023-07-30T03:58:26;17.40;99.90
11497;DHT22;5805;51.542;7.230;2023-07-30T04:00:52;17.30;99.90
11497;DHT22;5805;51.542;7.230;2023-07-30T04:03:17;17.30;99.90
11497;DHT22;5805;51.542;7.230;2023-07-30T04:05:43;17.30;99.90
11497;DHT22;5805;51.542;7.230;2023-07-30T04:08:09;17.30;99.90
11497;DHT22;5805;51.542;7.230;2023-07-30T04:10:34;17.30;99.90
11497;DHT22;5805;51.542;7.230;2023-07-30T04:13:02;17.30;99.90
11497;DHT22;5805;51.542;7.230;2023-07-30T04:15:27;17.30;99.90
11497;DHT22;5805;51.542;7.230;2023-07-30T04:17:53;17.30;99.90
11497;DHT22;5805;51.542;7.230;2023-07-30T04:20:19;17.30;99.90
11497;DHT22;5805;51.542;7.230;2023-07-30T04:22:45;17.40;99.90
11497;DHT22;5805;51.542;7.230;2023-07-30T04:25:10;17.40;99.90
11497;DHT22;5805;51.542;7.230;2023-07-30T04:27:36;17.40;99.90
11497;DHT22;5805;51.542;7.230;2023-07-30T04:30:04;17.40;99.90
11497;DHT22;5805;51.542;7.230;2023-07-30T04:32:30;17.40;99.90
11497;DHT22;5805;51.542;7.230;2023-07-30T04:34:55;17.40;99.90
11497;DHT22;5805;51.542;7.230;2023-07-30T04:37:21;17.40;99.90
11497;DHT22;5805;51.542;7.230;2023-07-30T04:39:47;17.40;99.90
11497;DHT22;5805;51.542;7.230;2023-07-30T04:42:13;17.40;99.90
11497;DHT22;5805;51.542;7.230;2023-07-30T04:44:39;17.50;99.90
11497;DHT22;5805;51.542;7.230;2023-07-30T04:47:06;17.50;99.90
11497;DHT22;5805;51.542;7.230;2023-07-30T04:49:32;17.60;99.90
11497;DHT22;5805;51.542;7.230;2023-07-30T04:51:57;17.80;99.90
11497;DHT22;5805;51.542;7.230;2023-07-30T04:54:23;17.90;99.90
11497;DHT22;5805;51.542;7.230;2023-07-30T04:56:49;17.90;99.90
11497;DHT22;5805;51.542;7.230;2023-07-30T04:59:14;18.00;99.90
11497;DHT22;5805;51.542;7.230;2023-07-30T05:01:40;18.00;99.90
11497;DHT22;5805;51.542;7.230;2023-07-30T05:04:07;18.10;99.90
11497;DHT22;5805;51.542;7.230;2023-07-30T05:06:33;18.20;99.90
11497;DHT22;5805;51.542;7.230;2023-07-30T05:08:59;18.30;99.90
11497;DHT22;5805;51.542;7.230;2023-07-30T05:11:24;18.30;99.90
11497;DHT22;5805;51.542;7.230;2023-07-30T05:13:50;18.40;99.90
11497;DHT22;5805;51.542;7.230;2023-07-30T05:16:16;18.50;99.90
11497;DHT22;5805;51.542;7.230;2023-07-30T05:18:41;18.60;99.90
11497;DHT22;5805;51.542;7.230;2023-07-30T05:21:08;18.70;99.90
11497;DHT22;5805;51.542;7.230;2023-07-30T05:23:34;18.70;99.90
11497;DHT22;5805;51.542;7.230;2023-07-30T05:26:00;18.80;99.90
11497;DHT22;5805;51.542;7.230;2023-07-30T05:28:26;18.80;99.90
11497;DHT22;5805;51.542;7.230;2023-07-30T05:30:51;18.80;99.90
11497;DHT22;5805;51.542;7.230;2023-07-30T05:33:17;18.80;99.90
11497;DHT22;5805;51.542;7.230;2023-07-30T05:35:43;18.80;99.90
11497;DHT22;5805;51.542;7.230;2023-07-30T05:38:10;18.80;99.90
11497;DHT22;5805;51.542;7.230;2023-07-30T05:40:35;18.80;99.90
11497;DHT22;5805;51.542;7.230;2023-07-30T05:43:01;18.80;99.90
11497;DHT22;5805;51.542;7.230;2023-07-30T05:45:27;18.90;99.90
11497;DHT22;5805;51.542;7.230;2023-07-30T05:47:53;18.90;99.90
11497;DHT22;5805;51.542;7.230;2023-07-30T05:50:18;18.90;99.90
11497;DHT22;5805;51.542;7.230;2023-07-30T05:52:44;18.90;99.90
11497;DHT22;5805;51.542;7.230;2023-07-30T05:55:11;18.90;99.90
11497;DHT22;5805;51.542;7.230;2023-07-30T05:57:37;18.90;99.90
11497;DHT22;5805;51.542;7.230;2023-07-30T06:00:03;18.90;99.90
11497;DHT22;5805;51.542;7.230;2023-07-30T06:02:29;19.00;99.90
11497;DHT22;5805;51.542;7.230;2023-07-30T06:04:54;19.00;99.90
11497;DHT22;5805;51.542;7.230;2023-07-30T06:07:20;19.00;99.90
11497;DHT22;5805;51.542;7.230;2023-07-30T06:09:46;19.00;99.90
11497;DHT22;5805;51.542;7.230;2023-07-30T06:12:13;19.00;99.90
11497;DHT22;5805;51.542;7.230;2023-07-30T06:14:38;19.00;99.90
11497;DHT22;5805;51.542;7.230;2023-07-30T06:17:04;19.00;99.90
11497;DHT22;5805;51.542;7.230;2023-07-30T06:19:30;19.00;99.90
11497;DHT22;5805;51.542;7.230;2023-07-30T06:21:56;19.10;99.90
11497;DHT22;5805;51.542;7.230;2023-07-30T06:24:21;19.10;99.90
11497;DHT22;5805;51.542;7.230;2023-07-30T06:26:47;19.10;99.90
11497;DHT22;5805;51.542;7.230;2023-07-30T06:29:14;19.20;99.90
11497;DHT22;5805;51.542;7.230;2023-07-30T06:31:40;19.20;99.90
11497;DHT22;5805;51.542;7.230;2023-07-30T06:34:05;19.20;99.90
11497;DHT22;5805;51.542;7.230;2023-07-30T06:36:31;19.30;99.90
11497;DHT22;5805;51.542;7.230;2023-07-30T06:38:57;19.40;99.90
11497;DHT22;5805;51.542;7.230;2023-07-30T06:41:22;19.30;99.90
11497;DHT22;5805;51.542;7.230;2023-07-30T06:43:48;19.30;99.90
11497;DHT22;5805;51.542;7.230;2023-07-30T06:46:15;19.30;99.90
11497;DHT22;5805;51.542;7.230;2023-07-30T06:48:41;19.30;99.90
11497;DHT22;5805;51.542;7.230;2023-07-30T06:51:07;19.30;99.90
11497;DHT22;5805;51.542;7.230;2023-07-30T06:53:33;19.30;99.90
11497;DHT22;5805;51.542;7.230;2023-07-30T06:55:58;19.20;99.90
11497;DHT22;5805;51.542;7.230;2023-07-30T06:58:24;19.20;99.90
11497;DHT22;5805;51.542;7.230;2023-07-30T07:00:50;19.10;99.90
11497;DHT22;5805;51.542;7.230;2023-07-30T07:03:17;19.10;99.90
11497;DHT22;5805;51.542;7.230;2023-07-30T07:05:43;19.10;99.90
11497;DHT22;5805;51.542;7.230;2023-07-30T07:08:08;19.10;99.90
11497;DHT22;5805;51.542;7.230;2023-07-30T07:10:34;19.10;99.90
11497;DHT22;5805;51.542;7.230;2023-07-30T07:13:00;19.10;99.90
11497;DHT22;5805;51.542;7.230;2023-07-30T07:15:26;19.20;99.90
11497;DHT22;5805;51.542;7.230;2023-07-30T07:17:51;19.20;99.90
11497;DHT22;5805;51.542;7.230;2023-07-30T07:20:18;19.20;99.90
11497;DHT22;5805;51.542;7.230;2023-07-30T07:22:44;19.20;99.90
11497;DHT22;5805;51.542;7.230;2023-07-30T07:25:09;19.20;99.90
11497;DHT22;5805;51.542;7.230;2023-07-30T07:27:35;19.30;99.90
11497;DHT22;5805;51.542;7.230;2023-07-30T07:30:01;19.30;99.90
11497;DHT22;5805;51.542;7.230;2023-07-30T07:32:27;19.30;99.90
11497;DHT22;5805;51.542;7.230;2023-07-30T07:34:52;19.30;99.90
11497;DHT22;5805;51.542;7.230;2023-07-30T07:37:20;19.40;99.90
11497;DHT22;5805;51.542;7.230;2023-07-30T07:39:45;19.40;99.90
11497;DHT22;5805;51.542;7.230;2023-07-30T07:42:12;19.40;99.90
11497;DHT22;5805;51.542;7.230;2023-07-30T07:44:37;19.50;99.90
11497;DHT22;5805;51.542;7.230;2023-07-30T07:47:03;19.60;99.90
11497;DHT22;5805;51.542;7.230;2023-07-30T07:49:29;19.60;99.90
11497;DHT22;5805;51.542;7.230;2023-07-30T07:51:55;19.60;99.90
11497;DHT22;5805;51.542;7.230;2023-07-30T07:54:22;19.60;99.90
11497;DHT22;5805;51.542;7.230;2023-07-30T07:56:47;19.60;99.90
11497;DHT22;5805;51.542;7.230;2023-07-30T07:59:13;19.70;99.90
11497;DHT22;5805;51.542;7.230;2023-07-30T08:01:39;19.80;99.90
11497;DHT22;5805;51.542;7.230;2023-07-30T08:04:04;19.90;99.90
11497;DHT22;5805;51.542;7.230;2023-07-30T08:06:31;20.00;99.90
11497;DHT22;5805;51.542;7.230;2023-07-30T08:08:57;20.10;99.90
11497;DHT22;5805;51.542;7.230;2023-07-30T08:11:24;20.20;99.90
11497;DHT22;5805;51.542;7.230;2023-07-30T08:13:50;20.30;99.90
11497;DHT22;5805;51.542;7.230;2023-07-30T08:16:15;20.40;99.90
11497;DHT22;5805;51.542;7.230;2023-07-30T08:18:41;20.60;99.90
11497;DHT22;5805;51.542;7.230;2023-07-30T08:21:07;20.60;99.90
11497;DHT22;5805;51.542;7.230;2023-07-30T08:23:32;20.60;99.90
11497;DHT22;5805;51.542;7.230;2023-07-30T08:25:58;20.60;99.90
11497;DHT22;5805;51.542;7.230;2023-07-30T08:28:25;20.70;99.90
11497;DHT22;5805;51.542;7.230;2023-07-30T08:30:51;20.70;99.90
11497;DHT22;5805;51.542;7.230;2023-07-30T08:33:16;20.80;99.90
11497;DHT22;5805;51.542;7.230;2023-07-30T08:35:42;20.90;99.90
11497;DHT22;5805;51.542;7.230;2023-07-30T08:38:08;21.10;99.90
11497;DHT22;5805;51.542;7.230;2023-07-30T08:40:34;21.30;99.90
11497;DHT22;5805;51.542;7.230;2023-07-30T08:42:59;21.50;99.90
11497;DHT22;5805;51.542;7.230;2023-07-30T08:45:27;21.60;99.90
11497;DHT22;5805;51.542;7.230;2023-07-30T08:47:53;21.70;99.90
11497;DHT22;5805;51.542;7.230;2023-07-30T08:50:19;21.70;99.90
11497;DHT22;5805;51.542;7.230;2023-07-30T08:52:45;21.80;99.90
11497;DHT22;5805;51.542;7.230;2023-07-30T08:55:12;22.10;99.90
11497;DHT22;5805;51.542;7.230;2023-07-30T08:57:38;22.60;99.90
11497;DHT22;5805;51.542;7.230;2023-07-30T09:00:08;23.00;99.90
11497;DHT22;5805;51.542;7.230;2023-07-30T09:02:38;23.30;99.90
11497;DHT22;5805;51.542;7.230;2023-07-30T09:05:06;23.80;99.90
11497;DHT22;5805;51.542;7.230;2023-07-30T09:07:32;24.10;99.90
11497;DHT22;5805;51.542;7.230;2023-07-30T09:09:58;24.10;99.90
11497;DHT22;5805;51.542;7.230;2023-07-30T09:12:26;24.20;99.90
11497;DHT22;5805;51.542;7.230;2023-07-30T09:14:53;24.00;99.90
11497;DHT22;5805;51.542;7.230;2023-07-30T09:17:19;23.80;99.90
11497;DHT22;5805;51.542;7.230;2023-07-30T09:19:46;23.50;99.90
11497;DHT22;5805;51.542;7.230;2023-07-30T09:22:12;23.30;99.90
11497;DHT22;5805;51.542;7.230;2023-07-30T09:24:41;23.40;99.90
11497;DHT22;5805;51.542;7.230;2023-07-30T09:27:08;23.70;99.90
11497;DHT22;5805;51.542;7.230;2023-07-30T09:29:34;24.20;99.90
11497;DHT22;5805;51.542;7.230;2023-07-30T09:31:59;24.30;99.90
11497;DHT22;5805;51.542;7.230;2023-07-30T09:34:25;24.10;99.90
11497;DHT22;5805;51.542;7.230;2023-07-30T09:36:53;24.20;99.90
11497;DHT22;5805;51.542;7.230;2023-07-30T09:39:20;24.20;99.90
11497;DHT22;5805;51.542;7.230;2023-07-30T09:41:46;24.20;99.90
11497;DHT22;5805;51.542;7.230;2023-07-30T09:44:12;24.20;99.30
11497;DHT22;5805;51.542;7.230;2023-07-30T09:46:48;24.30;99.30
11497;DHT22;5805;51.542;7.230;2023-07-30T09:49:15;24.50;97.90
11497;DHT22;5805;51.542;7.230;2023-07-30T09:51:40;24.80;98.90
11497;DHT22;5805;51.542;7.230;2023-07-30T09:54:09;25.00;97.10
11497;DHT22;5805;51.542;7.230;2023-07-30T09:56:36;25.10;95.10
11497;DHT22;5805;51.542;7.230;2023-07-30T09:59:02;25.10;95.40
11497;DHT22;5805;51.542;7.230;2023-07-30T10:01:29;25.10;95.70
11497;DHT22;5805;51.542;7.230;2023-07-30T10:03:57;25.00;94.60
11497;DHT22;5805;51.542;7.230;2023-07-30T10:06:23;24.80;95.20
11497;DHT22;5805;51.542;7.230;2023-07-30T10:08:52;24.80;95.50
11497;DHT22;5805;51.542;7.230;2023-07-30T10:11:20;24.80;96.00
11497;DHT22;5805;51.542;7.230;2023-07-30T10:13:47;24.90;96.10
11497;DHT22;5805;51.542;7.230;2023-07-30T10:16:13;25.00;95.60
11497;DHT22;5805;51.542;7.230;2023-07-30T10:18:39;25.10;94.50
11497;DHT22;5805;51.542;7.230;2023-07-30T10:21:07;25.20;94.30
11497;DHT22;5805;51.542;7.230;2023-07-30T10:23:33;25.30;94.00
11497;DHT22;5805;51.542;7.230;2023-07-30T10:25:59;25.40;93.60
11497;DHT22;5805;51.542;7.230;2023-07-30T10:28:35;25.50;92.60
11497;DHT22;5805;51.542;7.230;2023-07-30T10:31:03;25.60;92.10
11497;DHT22;5805;51.542;7.230;2023-07-30T10:33:44;25.70;90.30
11497;DHT22;5805;51.542;7.230;2023-07-30T10:36:11;25.80;88.90
11497;DHT22;5805;51.542;7.230;2023-07-30T10:38:36;25.80;86.40
11497;DHT22;5805;51.542;7.230;2023-07-30T10:41:05;25.50;82.20
11497;DHT22;5805;51.542;7.230;2023-07-30T10:43:35;25.30;87.20
11497;DHT22;5805;51.542;7.230;2023-07-30T10:46:01;25.40;90.90
11497;DHT22;5805;51.542;7.230;2023-07-30T10:48:33;25.70;85.90
11497;DHT22;5805;51.542;7.230;2023-07-30T10:51:01;25.70;80.20
11497;DHT22;5805;51.542;7.230;2023-07-30T10:53:27;25.70;79.70
11497;DHT22;5805;51.542;7.230;2023-07-30T10:55:53;25.50;80.50
11497;DHT22;5805;51.542;7.230;2023-07-30T10:58:19;25.40;82.00
11497;DHT22;5805;51.542;7.230;2023-07-30T11:00:46;25.40;81.70
11497;DHT22;5805;51.542;7.230;2023-07-30T11:03:11;25.20;80.30
11497;DHT22;5805;51.542;7.230;2023-07-30T11:05:38;24.90;81.60
11497;DHT22;5805;51.542;7.230;2023-07-30T11:08:04;24.60;85.40
11497;DHT22;5805;51.542;7.230;2023-07-30T11:10:29;24.60;88.80
11497;DHT22;5805;51.542;7.230;2023-07-30T11:12:57;24.80;90.40
11497;DHT22;5805;51.542;7.230;2023-07-30T11:15:23;25.00;87.90
11497;DHT22;5805;51.542;7.230;2023-07-30T11:17:51;25.10;87.50
11497;DHT22;5805;51.542;7.230;2023-07-30T11:20:24;25.20;87.70
11497;DHT22;5805;51.542;7.230;2023-07-30T11:22:50;25.40;87.00
11497;DHT22;5805;51.542;7.230;2023-07-30T11:25:19;25.40;85.00
11497;DHT22;5805;51.542;7.230;2023-07-30T11:27:45;25.30;86.90
11497;DHT22;5805;51.542;7.230;2023-07-30T11:30:11;25.10;84.50
11497;DHT22;5805;51.542;7.230;2023-07-30T11:32:37;25.10;85.80
11497;DHT22;5805;51.542;7.230;2023-07-30T11:35:06;25.20;87.30
11497;DHT22;5805;51.542;7.230;2023-07-30T11:37:32;25.30;78.20
11497;DHT22;5805;51.542;7.230;2023-07-30T11:40:00;25.30;78.50
11497;DHT22;5805;51.542;7.230;2023-07-30T11:42:26;25.40;76.40
11497;DHT22;5805;51.542;7.230;2023-07-30T11:44:51;25.40;75.40
11497;DHT22;5805;51.542;7.230;2023-07-30T11:47:21;25.40;75.20
11497;DHT22;5805;51.542;7.230;2023-07-30T11:49:55;25.20;77.20
11497;DHT22;5805;51.542;7.230;2023-07-30T11:52:22;25.10;77.30
11497;DHT22;5805;51.542;7.230;2023-07-30T11:54:47;25.00;79.10
11497;DHT22;5805;51.542;7.230;2023-07-30T11:57:13;24.80;80.70
11497;DHT22;5805;51.542;7.230;2023-07-30T11:59:39;24.60;82.40
11497;DHT22;5805;51.542;7.230;2023-07-30T12:02:06;24.60;84.50
11497;DHT22;5805;51.542;7.230;2023-07-30T12:04:42;24.80;82.90
11497;DHT22;5805;51.542;7.230;2023-07-30T12:07:09;25.00;81.10
11497;DHT22;5805;51.542;7.230;2023-07-30T12:09:36;25.10;80.10
11497;DHT22;5805;51.542;7.230;2023-07-30T12:12:03;25.20;79.80
11497;DHT22;5805;51.542;7.230;2023-07-30T12:14:29;25.40;79.40
11497;DHT22;5805;51.542;7.230;2023-07-30T12:17:07;25.60;78.50
11497;DHT22;5805;51.542;7.230;2023-07-30T12:19:33;25.70;76.80
11497;DHT22;5805;51.542;7.230;2023-07-30T12:21:58;25.60;75.40
11497;DHT22;5805;51.542;7.230;2023-07-30T12:24:24;25.50;75.80
11497;DHT22;5805;51.542;7.230;2023-07-30T12:26:51;25.60;74.80
11497;DHT22;5805;51.542;7.230;2023-07-30T12:29:17;25.70;75.80
11497;DHT22;5805;51.542;7.230;2023-07-30T12:31:42;25.70;73.90
11497;DHT22;5805;51.542;7.230;2023-07-30T12:34:08;25.70;74.20
11497;DHT22;5805;51.542;7.230;2023-07-30T12:36:34;25.70;74.40
11497;DHT22;5805;51.542;7.230;2023-07-30T12:38:59;25.80;73.80
11497;DHT22;5805;51.542;7.230;2023-07-30T12:41:25;25.90;73.30
11497;DHT22;5805;51.542;7.230;2023-07-30T12:43:52;25.80;71.50
11497;DHT22;5805;51.542;7.230;2023-07-30T12:46:18;25.60;72.10
11497;DHT22;5805;51.542;7.230;2023-07-30T12:48:43;25.40;73.40
11497;DHT22;5805;51.542;7.230;2023-07-30T12:51:09;25.40;74.00
11497;DHT22;5805;51.542;7.230;2023-07-30T12:53:35;25.40;75.10
11497;DHT22;5805;51.542;7.230;2023-07-30T12:56:00;25.50;75.70
11497;DHT22;5805;51.542;7.230;2023-07-30T12:58:26;25.50;76.60
11497;DHT22;5805;51.542;7.230;2023-07-30T13:00:53;25.40;75.70
11497;DHT22;5805;51.542;7.230;2023-07-30T13:03:19;25.30;75.90
11497;DHT22;5805;51.542;7.230;2023-07-30T13:05:45;25.20;75.80
11497;DHT22;5805;51.542;7.230;2023-07-30T13:08:10;25.30;76.30
11497;DHT22;5805;51.542;7.230;2023-07-30T13:10:36;25.50;73.80
11497;DHT22;5805;51.542;7.230;2023-07-30T13:13:02;25.70;74.00
11497;DHT22;5805;51.542;7.230;2023-07-30T13:15:27;25.90;72.50
11497;DHT22;5805;51.542;7.230;2023-07-30T13:17:54;26.10;72.00
11497;DHT22;5805;51.542;7.230;2023-07-30T13:20:20;26.10;68.60
11497;DHT22;5805;51.542;7.230;2023-07-30T13:22:46;25.90;70.50
11497;DHT22;5805;51.542;7.230;2023-07-30T13:25:11;25.70;70.60
11497;DHT22;5805;51.542;7.230;2023-07-30T13:27:37;25.60;70.60
11497;DHT22;5805;51.542;7.230;2023-07-30T13:30:03;25.50;69.90
11497;DHT22;5805;51.542;7.230;2023-07-30T13:32:29;25.30;69.40
11497;DHT22;5805;51.542;7.230;2023-07-30T13:34:56;25.20;68.80
11497;DHT22;5805;51.542;7.230;2023-07-30T13:37:22;24.90;67.70
11497;DHT22;5805;51.542;7.230;2023-07-30T13:39:48;24.80;69.80
11497;DHT22;5805;51.542;7.230;2023-07-30T13:42:13;24.70;71.50
11497;DHT22;5805;51.542;7.230;2023-07-30T13:44:39;24.60;72.40
11497;DHT22;5805;51.542;7.230;2023-07-30T13:47:05;24.50;76.60
11497;DHT22;5805;51.542;7.230;2023-07-30T13:49:31;24.50;84.60
11497;DHT22;5805;51.542;7.230;2023-07-30T13:51:58;24.50;89.10
11497;DHT22;5805;51.542;7.230;2023-07-30T13:54:24;24.60;90.80
11497;DHT22;5805;51.542;7.230;2023-07-30T13:56:49;24.70;90.40
11497;DHT22;5805;51.542;7.230;2023-07-30T13:59:15;24.80;90.80
11497;DHT22;5805;51.542;7.230;2023-07-30T14:01:41;24.80;91.50
11497;DHT22;5805;51.542;7.230;2023-07-30T14:04:06;24.70;91.20
11497;DHT22;5805;51.542;7.230;2023-07-30T14:06:32;24.60;91.50
11497;DHT22;5805;51.542;7.230;2023-07-30T14:08:59;22.80;91.30
11497;DHT22;5805;51.542;7.230;2023-07-30T14:11:25;24.50;92.00
11497;DHT22;5805;51.542;7.230;2023-07-30T14:13:51;24.80;90.70
11497;DHT22;5805;51.542;7.230;2023-07-30T14:16:17;24.90;89.10
11497;DHT22;5805;51.542;7.230;2023-07-30T14:18:42;24.90;87.40
11497;DHT22;5805;51.542;7.230;2023-07-30T14:21:08;25.00;87.10
11497;DHT22;5805;51.542;7.230;2023-07-30T14:23:34;25.00;84.00
11497;DHT22;5805;51.542;7.230;2023-07-30T14:26:01;25.00;82.80
11497;DHT22;5805;51.542;7.230;2023-07-30T14:28:26;24.80;81.50
11497;DHT22;5805;51.542;7.230;2023-07-30T14:30:52;24.70;81.40
11497;DHT22;5805;51.542;7.230;2023-07-30T14:33:18;24.50;81.10
11497;DHT22;5805;51.542;7.230;2023-07-30T14:35:43;24.40;81.70
11497;DHT22;5805;51.542;7.230;2023-07-30T14:38:09;24.20;82.80
11497;DHT22;5805;51.542;7.230;2023-07-30T14:40:35;23.90;84.10
11497;DHT22;5805;51.542;7.230;2023-07-30T14:43:02;23.80;87.60
11497;DHT22;5805;51.542;7.230;2023-07-30T14:45:27;23.70;90.80
11497;DHT22;5805;51.542;7.230;2023-07-30T14:47:53;23.60;92.20
11497;DHT22;5805;51.542;7.230;2023-07-30T14:50:19;23.50;94.20
11497;DHT22;5805;51.542;7.230;2023-07-30T14:52:44;23.50;94.40
11497;DHT22;5805;51.542;7.230;2023-07-30T14:55:10;23.60;94.90
11497;DHT22;5805;51.542;7.230;2023-07-30T14:57:36;23.70;95.10
11497;DHT22;5805;51.542;7.230;2023-07-30T15:00:03;23.80;94.10
11497;DHT22;5805;51.542;7.230;2023-07-30T15:02:29;23.90;94.30
11497;DHT22;5805;51.542;7.230;2023-07-30T15:04:55;24.10;94.00
11497;DHT22;5805;51.542;7.230;2023-07-30T15:07:21;24.20;93.20
11497;DHT22;5805;51.542;7.230;2023-07-30T15:09:47;24.30;91.40
11497;DHT22;5805;51.542;7.230;2023-07-30T15:12:12;24.20;91.50
11497;DHT22;5805;51.542;7.230;2023-07-30T15:14:38;24.10;91.40
11497;DHT22;5805;51.542;7.230;2023-07-30T15:17:05;23.90;90.70
11497;DHT22;5805;51.542;7.230;2023-07-30T15:19:31;23.80;91.50
11497;DHT22;5805;51.542;7.230;2023-07-30T15:21:57;23.70;91.80
11497;DHT22;5805;51.542;7.230;2023-07-30T15:24:22;23.70;91.60
11497;DHT22;5805;51.542;7.230;2023-07-30T15:26:48;23.60;92.30
11497;DHT22;5805;51.542;7.230;2023-07-30T15:29:14;23.50;93.80
11497;DHT22;5805;51.542;7.230;2023-07-30T15:31:39;23.30;95.90
11497;DHT22;5805;51.542;7.230;2023-07-30T15:34:06;23.10;97.80
11497;DHT22;5805;51.542;7.230;2023-07-30T15:36:32;23.00;99.60
11497;DHT22;5805;51.542;7.230;2023-07-30T15:38:58;23.10;99.90
11497;DHT22;5805;51.542;7.230;2023-07-30T15:41:23;23.30;99.90